• Join FlightAware (Why Join?)
  • Login
  • US Flag 
Gobble Gobble! 
11:09AM EST


 

Airport Tracker/Info


-or-


 

Live Flight TrackerFlight Track Log ✈ C-GWFB ✈ 28-Jul-2013 ✈ CYZE - CYFD

Flight Track Log - Related Links

Times and Time Zones

All times are in EDT time to prevent confusion due to time zone crossing. See the C-GWFB flight status page for this flight to view local times or setup timezone preferences in your user account.

Time Position Orientation Groundspeed Altitude Reporting Facility
EDT Latitude Longitude Course Direction KTS MPH feet Rate Location/Type
01:13PM 45.6662 -82.2991 126° Southeast  Level FlightAware Approximate
01:14PM 45.6477 -82.2621 126° Southeast  Level FlightAware Approximate
01:15PM 45.6282 -82.2264 137° Southeast  Level FlightAware Approximate
01:15PM 45.5333 -82.1000 139° Southeast 100 115 7,200  Level Toronto Center
01:16PM 45.6049 -82.1954 137° Southeast  Level FlightAware Approximate
01:16PM 45.5167 -82.0833 145° Southeast 100 115 7,700  Level Toronto Center
01:17PM 45.5816 -82.1643 137° Southeast  Level FlightAware Approximate
01:18PM 45.5584 -82.1333 137° Southeast  Level FlightAware Approximate
01:18PM 45.4833 -82.0333 134° Southeast 100 115 8,600  Level Toronto Center
01:19PM 45.5351 -82.1023 137° Southeast  Level FlightAware Approximate
01:19PM 45.4500 -82.0167 161° South 100 115 8,900  Level Toronto Center
01:20PM 45.5113 -82.0722 139° Southeast  Level FlightAware Approximate
01:20PM 45.4333 -81.9833 125° Southeast 100 115 9,000  Level Toronto Center
01:21PM 45.4874 -82.0422 139° Southeast  Level FlightAware Approximate
01:21PM 45.4333 -81.9667 90° East 120 138 9,000  Level Toronto Center
01:22PM 45.4000 -81.9167 134° Southeast 120 138 9,000  Level Toronto Center
01:23PM 45.3667 -81.8833 145° Southeast 120 138 9,100  Climbing Toronto Center
01:24PM 45.3500 -81.8667 145° Southeast 120 138 9,100  Level Toronto Center
01:25PM 45.3167 -81.8167 133° Southeast 120 138 9,100  Level Toronto Center
01:26PM 45.3000 -81.7833 125° Southeast 120 138 9,100  Level Toronto Center
01:27PM 45.2667 -81.7667 161° South 130 150 9,100  Level Toronto Center
01:28PM 45.2500 -81.7167 115° Southeast 120 138 9,100  Level Toronto Center
01:29PM 45.2167 -81.6833 145° Southeast 130 150 9,100  Level Toronto Center
01:30PM 45.1833 -81.6667 161° South 120 138 9,100  Level Toronto Center
01:31PM 45.1667 -81.6167 115° Southeast 130 150 9,100  Level Toronto Center
01:32PM 45.1333 -81.6000 161° South 120 138 9,100  Level Toronto Center
01:33PM 45.1167 -81.5500 115° Southeast 120 138 9,100  Level Toronto Center
01:34PM 45.0833 -81.5167 145° Southeast 120 138 9,100  Level Toronto Center
01:35PM 45.0500 -81.5000 161° South 130 150 9,100  Level Toronto Center
01:36PM 45.0333 -81.4500 115° Southeast 130 150 9,100  Level Toronto Center
01:37PM 45.0000 -81.4167 145° Southeast 130 150 9,100  Level Toronto Center
01:38PM 44.9833 -81.4000 145° Southeast 120 138 9,100  Level Toronto Center
01:39PM 44.9500 -81.3500 133° Southeast 120 138 9,100  Level Toronto Center
01:40PM 44.9167 -81.3333 161° South 120 138 9,100  Level Toronto Center
01:41PM 44.9000 -81.3000 125° Southeast 120 138 9,100  Level Toronto Center
01:42PM 44.8667 -81.2500 133° Southeast 130 150 9,100  Level Toronto Center
01:43PM 44.8500 -81.2333 145° Southeast 130 150 9,100  Level Toronto Center
01:45PM 44.8212 -81.2003 141° Southeast  Level FlightAware Approximate
01:47PM 44.7500 -81.1167 161° South 130 150 9,100  Level Toronto Center
01:48PM 44.7167 -81.0667 133° Southeast 130 150 9,100  Level Toronto Center
01:49PM 44.6833 -81.0333 145° Southeast 130 150 9,100  Level Toronto Center
01:50PM 44.6500 -81.0333 180° South 120 138 9,100  Level Toronto Center
01:51PM 44.6167 -81.0333 180° South 120 138 9,100  Level Toronto Center
01:52PM 44.6298 -81.0485 161° South  Level FlightAware Approximate
01:52PM 44.5833 -81.0167 160° South 130 150 9,100  Level Toronto Center
01:53PM 44.5500 -80.9833 145° Southeast 120 138 9,100  Level Toronto Center
01:54PM 44.5167 -80.9833 180° South 130 150 9,100  Level Toronto Center
01:55PM 44.4833 -80.9667 160° South 130 150 9,100  Level Toronto Center
01:56PM 44.4500 -80.9333 144° Southeast 120 138 9,100  Level Toronto Center
01:57PM 44.4167 -80.9333 180° South 120 138 9,100  Level Toronto Center
01:58PM 44.3833 -80.9167 160° South 120 138 9,100  Level Toronto Center
01:59PM 44.3500 -80.9167 180° South 110 127 9,100  Level Toronto Center
02:00PM 44.3333 -80.8833 125° Southeast 110 127 9,100  Level Toronto Center
02:01PM 44.3000 -80.8833 180° South 110 127 9,100  Level Toronto Center
02:02PM 44.2667 -80.8667 160° South 110 127 9,100  Level Toronto Center
02:03PM 44.2333 -80.8500 160° South 110 127 9,100  Level Toronto Center
02:04PM 44.2167 -80.8500 180° South 120 138 9,100 -60 Level Toronto Center
02:05PM 44.2000 -80.8167 125° Southeast 120 138 9,000 -60 Descending Toronto Center
02:06PM 44.1667 -80.8167 180° South 120 138 9,000  Level Toronto Center
02:07PM 44.1333 -80.8000 160° South 120 138 9,000  Level Toronto Center
02:08PM 44.1000 -80.7667 144° Southeast 120 138 9,000  Level Toronto Center
02:09PM 44.0667 -80.7667 180° South 120 138 9,000  Level Toronto Center
02:10PM 44.0333 -80.7500 160° South 120 138 9,000  Level Toronto Center
02:11PM 44.0167 -80.7500 180° South 110 127 9,000  Level Toronto Center
02:12PM 43.9833 -80.7167 144° Southeast 110 127 9,000  Level Toronto Center
02:13PM 43.9500 -80.7000 160° South 110 127 9,000  Level Toronto Center
02:14PM 43.9167 -80.7000 180° South 110 127 9,000  Level Toronto Center
02:15PM 43.8833 -80.6667 144° Southeast 110 127 9,000  Level Toronto Center
02:16PM 43.8667 -80.6667 180° South 110 127 9,000  Level Toronto Center
02:17PM 43.8333 -80.6500 160° South 110 127 9,000  Level Toronto Center
02:18PM 43.8000 -80.6333 160° South 110 127 9,000  Level Toronto Center
02:19PM 43.7833 -80.6333 180° South 110 127 9,000  Level Toronto Center
02:20PM 43.7500 -80.6000 144° Southeast 110 127 9,000  Level Toronto Center
02:21PM 43.7167 -80.6000 180° South 110 127 9,000  Level Toronto Center
02:22PM 43.6833 -80.5833 160° South 110 127 9,000 -240 Level Toronto Center
02:23PM 43.6667 -80.5833 180° South 110 127 8,600 -480 Descending Toronto Center
02:24PM 43.6333 -80.5500 144° Southeast 120 138 8,100 -420 Descending Toronto Center
02:25PM 43.6000 -80.5500 180° South 120 138 7,800 -300 Descending Toronto Center
02:26PM 43.5667 -80.5333 160° South 130 150 7,500 -300 Descending Toronto Center
02:27PM 43.5333 -80.5000 144° Southeast 130 150 7,200 -300 Descending Toronto Center
02:28PM 43.4833 -80.5000 180° South 130 150 6,900 -480 Descending Toronto Center
02:29PM 43.4500 -80.4833 160° South 140 161 6,300 -600 Descending Toronto Center
02:30PM 43.4167 -80.4667 160° South 140 161 5,700 -600 Descending Toronto Center
02:31PM 43.3833 -80.4333 144° Southeast 140 161 5,100 -780 Descending Toronto Center
02:32PM 43.3500 -80.4333 180° South 140 161 4,200 -1,080 Descending Toronto Center
02:33PM 43.3000 -80.4167 166° South 150 173 3,000 -1,020 Descending Toronto Center
02:34PM 43.2667 -80.3833 144° Southeast 160 184 2,200 -840 Descending Toronto Center